Time;durP1;ratioP1;P1;durP2;ratioP2;P2;SDS_P1;SDS_P2;PMS_P1;PMS_P2;Temp;Humidity;BMP_temperature;BMP_pressure;BME280_temperature;BME280_humidity;BME280_pressure;Samples;Min_cycle;Max_cycle;Signal;HPM_P1;HPM_P2
2022/05/22 00:01:40;;;;;;;9.38;3.35;;;;;;;10.19;79.24;100583.21;1684080;84;21233;-67
2022/05/22 00:04:09;;;;;;;6.30;3.12;;;;;;;10.17;79.27;100590.52;1679265;85;21011;-67
2022/05/22 00:06:35;;;;;;;7.83;2.83;;;;;;;10.17;79.31;100585.71;1679533;85;21059;-67
2022/05/22 00:09:01;;;;;;;6.58;2.83;;;;;;;10.16;79.31;100583.54;1679465;85;21508;-67
2022/05/22 00:11:27;;;;;;;8.08;2.77;;;;;;;10.19;79.33;100581.88;1679374;85;20935;-67
2022/05/22 00:13:53;;;;;;;5.37;2.58;;;;;;;10.21;79.36;100581.20;1679012;85;21451;-67
2022/05/22 00:16:37;;;;;;;6.65;2.98;;;;;;;10.21;79.36;100581.20;1674904;85;20893;-68
2022/05/22 00:19:19;;;;;;;3.85;2.70;;;;;;;10.22;79.36;100581.55;1673521;85;21056;-67
2022/05/22 00:21:45;;;;;;;6.15;2.87;;;;;;;10.23;79.38;100583.72;1673681;85;20994;-68
2022/05/22 00:24:12;;;;;;;8.43;2.95;;;;;;;10.22;79.42;100578.88;1677387;83;21122;-68
2022/05/22 00:26:39;;;;;;;4.53;3.12;;;;;;;10.21;79.44;100581.20;1674199;85;21074;-68
2022/05/22 00:29:05;;;;;;;14.23;3.58;;;;;;;10.17;79.46;100571.86;1674430;85;21626;-68
2022/05/22 00:31:31;;;;;;;9.53;4.00;;;;;;;10.13;79.49;100577.67;1674357;85;21050;-68
2022/05/22 00:33:57;;;;;;;6.08;3.12;;;;;;;10.08;79.54;100572.81;1674691;83;20891;-68
2022/05/22 00:36:23;;;;;;;7.17;3.17;;;;;;;10.04;79.56;100568.80;1684851;83;20865;-68
2022/05/22 00:38:48;;;;;;;7.78;3.00;;;;;;;10.01;79.61;100567.30;1684892;85;21043;-68
2022/05/22 00:41:15;;;;;;;8.40;2.90;;;;;;;9.99;79.64;100565.81;1684387;85;20995;-68
2022/05/22 00:43:45;;;;;;;7.00;3.12;;;;;;;9.94;79.67;100567.62;1684916;84;21012;-68
2022/05/22 00:46:13;;;;;;;8.25;3.15;;;;;;;9.94;79.70;100564.11;1651584;83;21034;-67
2022/05/22 00:48:43;;;;;;;6.40;2.77;;;;;;;9.94;79.72;100564.11;1646682;87;21049;-67
2022/05/22 00:51:22;;;;;;;8.00;4.05;;;;;;;9.95;79.76;100564.46;1646874;87;21310;-67
2022/05/22 00:53:56;;;;;;;6.30;2.58;;;;;;;9.94;79.75;100564.11;1646762;87;21046;-68
2022/05/22 00:56:27;;;;;;;6.30;2.70;;;;;;;9.94;79.77;100558.79;1682556;83;21035;-68
2022/05/22 00:58:53;;;;;;;9.48;2.83;;;;;;;9.96;79.78;100566.11;1685109;85;20960;-68
2022/05/22 01:01:19;;;;;;;6.67;2.55;;;;;;;9.93;79.78;100555.78;1682405;83;21034;-68
2022/05/22 01:03:45;;;;;;;5.35;2.17;;;;;;;9.90;79.79;100569.42;1679723;83;21381;-68
2022/05/22 01:06:16;;;;;;;7.80;2.77;;;;;;;9.86;79.79;100564.91;1684987;85;20987;-68
2022/05/22 01:08:43;;;;;;;5.58;2.90;;;;;;;9.83;79.82;100567.91;1685175;85;21028;-68
2022/05/22 01:11:16;;;;;;;6.90;3.00;;;;;;;9.80;79.80;100572.23;1678514;83;21038;-68
2022/05/22 01:13:50;;;;;;;8.05;2.85;;;;;;;9.77;79.80;100563.23;1641911;86;21022;-68
2022/05/22 01:16:16;;;;;;;3.85;2.33;;;;;;;9.77;79.82;100567.72;1641440;87;21230;-67
2022/05/22 01:18:52;;;;;;;5.10;2.55;;;;;;;9.73;79.80;100561.04;1641440;87;21612;-68
2022/05/22 01:21:26;;;;;;;9.93;2.52;;;;;;;9.73;79.79;100562.37;1659254;83;21071;-67
2022/05/22 01:23:52;;;;;;;8.50;2.77;;;;;;;9.70;79.80;100560.03;1672551;85;21019;-68
2022/05/22 01:26:19;;;;;;;5.72;2.87;;;;;;;9.67;79.79;100554.54;1674165;85;20931;-68
2022/05/22 01:28:45;;;;;;;8.25;2.40;;;;;;;9.65;79.77;100551.67;1674527;85;21948;-68
2022/05/22 01:31:12;;;;;;;7.58;2.58;;;;;;;9.64;79.76;100559.35;1666566;83;21086;-67
2022/05/22 01:33:40;;;;;;;6.47;2.45;;;;;;;9.60;79.78;100552.18;1641071;87;21569;-67
2022/05/22 01:36:06;;;;;;;3.77;2.00;;;;;;;9.60;79.78;100547.34;1641390;87;21010;-67
2022/05/22 01:38:33;;;;;;;6.95;2.58;;;;;;;9.58;79.75;100550.65;1641801;87;21030;-68
2022/05/22 01:40:59;;;;;;;6.22;2.47;;;;;;;9.58;79.75;100555.97;1648227;83;21253;-67
2022/05/22 01:43:25;;;;;;;7.08;2.22;;;;;;;9.55;79.75;100555.80;1673711;85;21018;-67
2022/05/22 01:45:51;;;;;;;8.35;2.67;;;;;;;9.53;79.75;100557.28;1674383;85;21027;-68
2022/05/22 01:48:18;;;;;;;6.45;2.70;;;;;;;9.51;79.73;100561.95;1674212;83;21038;-67
2022/05/22 01:50:44;;;;;;;8.28;2.80;;;;;;;9.53;79.73;100555.95;1674173;85;21094;-67
2022/05/22 01:53:10;;;;;;;9.23;2.58;;;;;;;9.56;79.73;100555.31;1674100;85;21098;-67
2022/05/22 01:55:36;;;;;;;4.90;2.47;;;;;;;9.56;79.68;100554.82;1674189;85;21507;-67
2022/05/22 01:58:06;;;;;;;8.68;2.75;;;;;;;9.54;79.67;100553.64;1673951;83;21006;-67
2022/05/22 02:00:30;;;;;;;7.60;2.17;;;;;;;9.52;79.65;100556.97;1672551;84;21130;-67
2022/05/22 02:02:56;;;;;;;4.35;2.15;;;;;;;9.49;79.64;100553.79;1669393;84;21717;-69
2022/05/22 02:05:23;;;;;;;8.48;2.30;;;;;;;9.45;79.63;100554.60;1669161;86;21137;-67
2022/05/22 02:10:34;;;;;;;9.08;2.47;;;;;;;9.42;79.62;100562.91;1658379;86;21543;-68
2022/05/22 02:13:00;;;;;;;4.92;2.40;;;;;;;9.38;79.63;100558.89;1658479;86;21031;-67
2022/05/22 02:15:27;;;;;;;6.83;2.62;;;;;;;9.34;79.63;100562.86;1667993;85;21014;-68
2022/05/22 02:17:53;;;;;;;7.80;2.40;;;;;;;9.33;79.64;100558.52;1641786;85;21197;-67
2022/05/22 02:20:21;;;;;;;7.65;2.98;;;;;;;9.32;79.65;100559.50;1648776;87;21003;-67
2022/05/22 02:22:50;;;;;;;7.17;2.62;;;;;;;9.31;79.67;100557.85;1655685;83;21043;-68
2022/05/22 02:25:20;;;;;;;10.03;2.40;;;;;;;9.31;79.67;100553.86;1700192;84;21051;-67
2022/05/22 02:27:46;;;;;;;;;;;;;;;9.30;79.69;100548.19;1700904;83;21027;-68
2022/05/22 02:30:15;;;;;;;4.80;2.12;;;;;;;9.29;79.69;100549.70;1700382;84;21095;-68
2022/05/22 02:32:41;;;;;;;5.67;2.60;;;;;;;9.27;79.68;100548.52;1700267;84;21053;-67
2022/05/22 02:35:09;;;;;;;7.25;2.10;;;;;;;9.25;79.70;100541.20;1682416;83;20904;-68
2022/05/22 02:37:51;;;;;;;7.80;2.67;;;;;;;9.24;79.73;100539.52;1684169;84;21024;-68
2022/05/22 02:40:20;;;;;;;8.73;2.55;;;;;;;9.22;79.72;100542.81;1701156;84;21654;-68
2022/05/22 02:42:48;;;;;;;6.10;2.47;;;;;;;9.23;79.69;100540.99;1701734;84;21088;-67
2022/05/22 02:45:19;;;;;;;7.00;2.60;;;;;;;9.24;79.69;100544.84;1700499;83;20999;-68
2022/05/22 02:47:45;;;;;;;6.40;2.62;;;;;;;9.26;79.68;100543.33;1681629;85;21514;-67
2022/05/22 02:50:13;;;;;;;9.40;2.60;;;;;;;9.28;79.71;100550.19;1681879;85;21038;-68
2022/05/22 02:52:39;;;;;;;9.80;2.60;;;;;;;9.29;79.67;100546.52;1681855;85;21531;-68
2022/05/22 02:55:06;;;;;;;5.53;1.95;;;;;;;9.32;79.68;100550.19;1684642;83;21142;-67
2022/05/22 02:57:33;;;;;;;9.50;2.47;;;;;;;9.32;79.66;100546.19;1692607;84;21087;-68
2022/05/22 02:59:59;;;;;;;5.97;2.35;;;;;;;9.34;79.64;100544.23;1692726;84;21066;-67
2022/05/22 03:02:25;;;;;;;9.43;2.10;;;;;;;9.33;79.64;100541.22;1692670;84;20964;-68
2022/05/22 03:04:51;;;;;;;5.85;2.00;;;;;;;9.34;79.63;100543.39;1692733;83;20900;-67
2022/05/22 03:07:19;;;;;;;9.70;2.47;;;;;;;9.33;79.62;100534.56;1689474;83;21221;-67
2022/05/22 03:09:47;;;;;;;8.65;2.72;;;;;;;9.36;79.65;100534.73;1661913;84;39075;-68
2022/05/22 03:12:17;;;;;;;9.73;2.55;;;;;;;9.38;79.61;100532.27;1692652;84;21000;-67
2022/05/22 03:14:48;;;;;;;8.95;2.10;;;;;;;9.41;79.60;100531.95;1692468;84;21091;-68
2022/05/22 03:17:14;;;;;;;6.87;2.05;;;;;;;9.43;79.59;100525.95;1688531;83;21493;-67
2022/05/22 03:19:40;;;;;;;8.93;2.12;;;;;;;9.47;79.59;100528.64;1653906;86;22023;-68
2022/05/22 03:22:07;;;;;;;7.70;2.12;;;;;;;9.49;79.55;100524.02;1653933;86;20997;-68
2022/05/22 03:24:33;;;;;;;4.15;2.25;;;;;;;9.50;79.52;100528.32;1654316;86;21079;-68
2022/05/22 03:27:10;;;;;;;4.62;2.02;;;;;;;9.51;79.50;100526.50;1655590;83;21490;-68
2022/05/22 03:29:37;;;;;;;6.25;2.40;;;;;;;9.51;79.47;100527.33;1692593;84;21011;-68
2022/05/22 03:32:04;;;;;;;8.70;2.05;;;;;;;9.53;79.49;100528.00;1692567;84;21248;-67
2022/05/22 03:34:30;;;;;;;7.75;2.27;;;;;;;9.56;79.47;100526.03;1692490;84;21654;-67
2022/05/22 03:36:56;;;;;;;5.60;2.45;;;;;;;9.61;79.45;100526.36;1692552;84;20987;-67
2022/05/22 03:39:22;;;;;;;4.58;1.70;;;;;;;9.66;79.42;100528.90;1692074;83;20912;-67
2022/05/22 03:41:48;;;;;;;6.75;2.02;;;;;;;9.77;79.41;100532.60;1682140;85;21007;-67
2022/05/22 03:44:14;;;;;;;7.00;1.80;;;;;;;9.83;79.34;100531.95;1681816;85;21323;-68
2022/05/22 03:46:40;;;;;;;6.85;2.00;;;;;;;9.92;79.41;100531.48;1682016;85;20914;-67
2022/05/22 03:49:06;;;;;;;3.02;1.75;;;;;;;10.10;79.36;100525.52;1681934;85;20977;-67
2022/05/22 03:51:32;;;;;;;4.97;2.27;;;;;;;10.20;79.25;100524.92;1682641;83;21593;-67
2022/05/22 03:53:59;;;;;;;6.37;1.80;;;;;;;10.20;79.12;100526.25;1687845;83;21717;-68
2022/05/22 03:56:25;;;;;;;6.78;2.15;;;;;;;10.76;79.38;100520.60;1692557;84;21322;-68
2022/05/22 03:58:51;;;;;;;7.90;2.60;;;;;;;11.98;79.70;100532.58;1692597;84;21457;-68
2022/05/22 04:01:17;;;;;;;7.10;2.27;;;;;;;13.17;79.35;100529.64;1692770;84;20920;-68
2022/05/22 04:03:43;;;;;;;4.30;1.80;;;;;;;14.47;77.89;100503.30;1692114;83;21020;-68
2022/05/22 04:06:10;;;;;;;6.15;2.35;;;;;;;14.47;77.89;100503.30;1677831;85;21023;-68
2022/05/22 04:08:36;;;;;;;6.58;2.20;;;;;;;14.52;77.00;100512.13;1672440;83;21992;-68
2022/05/22 04:11:14;;;;;;;5.37;1.60;;;;;;;14.15;76.60;100523.88;1654142;86;20942;-69
2022/05/22 04:13:40;;;;;;;5.10;1.45;;;;;;;14.50;76.47;100528.41;1654267;86;21013;-68
2022/05/22 04:16:07;;;;;;;4.17;1.50;;;;;;;14.30;75.71;100528.19;1654153;83;21026;-68
2022/05/22 04:18:33;;;;;;;5.35;1.50;;;;;;;14.77;75.49;100524.95;1651471;85;21100;-68
2022/05/22 04:20:59;;;;;;;4.95;1.80;;;;;;;14.43;74.37;100532.88;1651473;86;21122;-68
2022/05/22 04:26:09;;;;;;;4.12;1.47;;;;;;;12.66;73.67;100534.45;1658675;83;21593;-68
2022/05/22 04:28:35;;;;;;;7.87;1.42;;;;;;;11.99;73.61;100535.09;1651327;87;21008;-68
2022/05/22 04:31:03;;;;;;;8.03;2.17;;;;;;;11.63;73.57;100534.39;1651453;87;20998;-68
2022/05/22 04:33:30;;;;;;;6.00;1.90;;;;;;;11.45;73.64;100539.47;1651416;87;21841;-68
2022/05/22 04:35:56;;;;;;;6.30;2.33;;;;;;;11.30;73.60;100537.17;1671424;83;21015;-68
2022/05/22 04:38:22;;;;;;;8.20;2.10;;;;;;;11.21;73.61;100538.20;1679400;85;21420;-68
2022/05/22 04:40:58;;;;;;;6.20;2.27;;;;;;;11.18;73.64;100535.87;1679189;85;20935;-68
2022/05/22 04:43:25;;;;;;;9.88;1.95;;;;;;;11.15;73.64;100533.55;1671288;83;21029;-68
2022/05/22 04:45:51;;;;;;;9.75;2.50;;;;;;;11.18;73.65;100537.22;1651426;87;22083;-68
2022/05/22 04:48:18;;;;;;;8.00;2.05;;;;;;;11.14;73.67;100533.22;1651395;87;21021;-68
2022/05/22 04:50:47;;;;;;;5.60;2.08;;;;;;;11.11;73.69;100536.23;1651550;87;21510;-68
2022/05/22 04:53:14;;;;;;;4.53;2.20;;;;;;;11.06;73.72;100541.73;1654538;83;21025;-68
2022/05/22 04:55:40;;;;;;;8.20;1.87;;;;;;;11.06;73.74;100543.90;1651636;87;21081;-68
2022/05/22 04:58:06;;;;;;;7.33;1.92;;;;;;;11.07;73.78;100532.23;1651432;87;21887;-68
2022/05/22 05:00:32;;;;;;;5.72;1.95;;;;;;;11.02;73.81;100543.90;1651382;87;20878;-68
2022/05/22 05:02:58;;;;;;;11.08;1.98;;;;;;;10.97;73.82;100543.09;1651945;83;20910;-68
2022/05/22 05:05:24;;;;;;;9.43;2.12;;;;;;;10.99;73.90;100545.58;1688687;83;21035;-68
2022/05/22 05:07:50;;;;;;;7.62;2.85;;;;;;;11.02;73.90;100546.07;1690165;85;21004;-68
2022/05/22 05:10:16;;;;;;;12.28;1.87;;;;;;;11.05;73.96;100538.22;1689884;85;21060;-68
2022/05/22 05:12:42;;;;;;;9.88;2.10;;;;;;;11.02;73.97;100546.56;1686342;83;21227;-68
2022/05/22 05:15:10;;;;;;;6.95;1.70;;;;;;;11.00;74.01;100545.92;1651236;87;21106;-68
2022/05/22 05:17:36;;;;;;;13.62;3.12;;;;;;;11.04;74.04;100548.58;1651168;86;21034;-68
2022/05/22 05:20:03;;;;;;;5.37;1.72;;;;;;;11.00;74.09;100543.25;1651164;87;20914;-68
2022/05/22 05:22:32;;;;;;;6.53;1.85;;;;;;;10.99;74.14;100550.91;1652657;83;21727;-68
2022/05/22 05:24:58;;;;;;;7.37;1.85;;;;;;;11.03;74.17;100550.91;1688269;83;21008;-68
2022/05/22 05:27:24;;;;;;;7.10;2.17;;;;;;;11.07;74.22;100548.24;1689954;85;21015;-68
2022/05/22 05:29:50;;;;;;;8.25;2.27;;;;;;;11.10;74.23;100549.23;1690160;85;20976;-68
2022/05/22 05:32:20;;;;;;;8.45;1.70;;;;;;;11.09;74.27;100556.06;1689995;85;20869;-68
2022/05/22 05:34:46;;;;;;;7.17;2.45;;;;;;;11.11;74.32;100558.08;1663619;83;21753;-68
2022/05/22 05:37:12;;;;;;;6.65;1.87;;;;;;;11.10;74.34;100557.23;1651418;87;20926;-68
2022/05/22 05:39:38;;;;;;;5.15;1.80;;;;;;;11.09;74.36;100556.90;1651285;87;21751;-68
2022/05/22 05:42:05;;;;;;;6.03;2.10;;;;;;;11.16;74.39;100545.87;1651307;87;21013;-68
2022/05/22 05:44:33;;;;;;;4.87;2.08;;;;;;;11.20;74.43;100556.55;1672265;84;21062;-68
2022/05/22 05:46:59;;;;;;;10.08;2.45;;;;;;;11.23;74.43;100549.53;1668354;83;21252;-68
2022/05/22 05:49:25;;;;;;;8.98;2.35;;;;;;;11.31;74.47;100557.53;1681866;85;21064;-68
2022/05/22 05:51:51;;;;;;;10.35;2.00;;;;;;;11.29;74.44;100556.88;1682325;85;20923;-68
2022/05/22 05:54:17;;;;;;;15.63;2.70;;;;;;;11.30;74.50;100557.19;1681661;85;21019;-68
2022/05/22 05:56:44;;;;;;;4.87;2.55;;;;;;;11.40;74.54;100559.16;1682161;83;20955;-68
2022/05/22 05:59:10;;;;;;;5.62;1.75;;;;;;;11.44;74.52;100561.83;1663415;86;21579;-68
2022/05/22 06:01:36;;;;;;;7.92;2.50;;;;;;;11.51;74.57;100561.47;1679734;84;21008;-68
2022/05/22 06:04:02;;;;;;;6.50;2.47;;;;;;;11.60;74.57;100564.12;1690169;83;20995;-68
2022/05/22 06:06:28;;;;;;;7.22;1.85;;;;;;;11.67;74.55;100566.44;1651449;85;21071;-68
2022/05/22 06:08:55;;;;;;;6.95;2.00;;;;;;;11.71;74.54;100563.28;1679386;85;20964;-68
2022/05/22 06:11:21;;;;;;;8.25;1.98;;;;;;;11.80;74.59;100565.41;1678907;85;21272;-68
2022/05/22 06:13:48;;;;;;;7.08;2.40;;;;;;;11.92;74.57;100569.37;1679074;85;21106;-68
2022/05/22 06:16:14;;;;;;;8.33;2.25;;;;;;;12.03;74.56;100564.98;1680304;83;21022;-68
2022/05/22 06:18:40;;;;;;;9.93;2.22;;;;;;;12.18;74.52;100567.21;1682061;85;21094;-68
2022/05/22 06:21:10;;;;;;;9.53;2.60;;;;;;;12.29;74.45;100560.62;1691334;83;21015;-68
2022/05/22 06:23:38;;;;;;;10.55;2.15;;;;;;;12.41;74.42;100556.55;1692749;84;21027;-68
2022/05/22 06:26:07;;;;;;;6.45;2.45;;;;;;;12.67;74.38;100553.48;1692593;84;20984;-69
2022/05/22 06:28:33;;;;;;;8.80;2.10;;;;;;;12.93;74.29;100557.46;1692512;84;21026;-68
2022/05/22 06:30:59;;;;;;;9.68;2.17;;;;;;;13.13;74.20;100560.47;1685016;83;20907;-69
2022/05/22 06:33:25;;;;;;;11.57;2.25;;;;;;;13.21;74.04;100553.70;1681964;85;21010;-68
2022/05/22 06:35:51;;;;;;;8.98;2.20;;;;;;;13.36;74.03;100556.41;1681943;85;21067;-68
2022/05/22 06:41:06;;;;;;;6.78;2.33;;;;;;;13.55;73.61;100561.70;1681626;85;21075;-68
2022/05/22 06:43:33;;;;;;;10.88;2.22;;;;;;;13.71;73.53;100560.19;1682042;85;20983;-68
2022/05/22 06:45:59;;;;;;;7.25;2.67;;;;;;;13.80;73.17;100565.75;1681982;83;21033;-68
2022/05/22 06:48:25;;;;;;;7.35;3.05;;;;;;;14.08;73.21;100564.05;1692468;84;20990;-68
2022/05/22 06:50:51;;;;;;;5.08;2.00;;;;;;;14.61;72.98;100559.27;1692743;84;21326;-69
2022/05/22 06:53:17;;;;;;;10.70;2.77;;;;;;;14.77;72.64;100557.17;1692549;84;21031;-69
2022/05/22 06:55:43;;;;;;;8.50;2.77;;;;;;;15.03;72.43;100549.83;1693030;84;21099;-69
2022/05/22 06:58:10;;;;;;;5.05;1.60;;;;;;;15.20;72.21;100551.19;1691870;83;21492;-69
2022/05/22 07:00:36;;;;;;;5.03;1.80;;;;;;;15.02;71.84;100552.22;1692769;84;21684;-69
2022/05/22 07:03:01;;;;;;;7.10;2.58;;;;;;;15.01;71.63;100555.92;1692430;83;20916;-69
2022/05/22 07:05:27;;;;;;;5.85;2.35;;;;;;;14.82;71.34;100560.60;1692758;84;20912;-68
2022/05/22 07:07:53;;;;;;;6.45;2.55;;;;;;;14.81;71.20;100558.97;1692643;84;21532;-69
2022/05/22 07:11:38;;;;;;;8.93;2.40;;;;;;;15.25;71.13;100560.85;1689831;83;20983;-68
2022/05/22 07:12:47;;;;;;;4.03;1.67;;;;;;;15.15;70.76;100564.40;1688918;84;22113;-68
2022/05/22 07:15:13;;;;;;;9.08;2.42;;;;;;;14.70;70.52;100571.05;1692694;84;20976;-68
2022/05/22 07:17:39;;;;;;;7.97;2.08;;;;;;;14.36;70.41;100570.38;1690066;84;21721;-69
2022/05/22 07:20:07;;;;;;;7.12;2.17;;;;;;;14.15;70.34;100570.82;1689411;83;21495;-69
2022/05/22 07:22:33;;;;;;;5.25;2.58;;;;;;;13.98;70.29;100567.53;1690099;85;21543;-69
2022/05/22 07:24:59;;;;;;;8.60;1.80;;;;;;;13.92;70.20;100562.42;1689910;85;21193;-69
2022/05/22 07:27:25;;;;;;;8.20;1.90;;;;;;;13.92;70.19;100561.59;1677589;83;21047;-68
2022/05/22 07:29:51;;;;;;;11.68;2.62;;;;;;;13.89;70.05;100568.67;1673009;83;21027;-68
2022/05/22 07:32:17;;;;;;;7.45;2.22;;;;;;;13.78;70.00;100557.92;1689775;85;20912;-68
2022/05/22 07:34:44;;;;;;;8.65;2.02;;;;;;;13.68;69.93;100553.86;1689924;85;20991;-68
2022/05/22 07:37:10;;;;;;;6.35;1.82;;;;;;;13.53;69.91;100557.05;1639878;85;21443;-68
2022/05/22 07:39:37;;;;;;;8.00;2.55;;;;;;;13.39;69.93;100551.51;1687408;83;21070;-68
2022/05/22 07:42:03;;;;;;;10.25;2.10;;;;;;;13.34;69.97;100549.88;1686652;83;21015;-68
2022/05/22 07:44:29;;;;;;;5.65;1.80;;;;;;;13.49;70.05;100550.72;1691783;83;21052;-68
2022/05/22 07:46:55;;;;;;;10.38;2.85;;;;;;;13.66;70.00;100551.86;1681934;83;21016;-68
2022/05/22 07:52:08;;;;;;;7.90;2.72;;;;;;;13.73;69.91;100541.55;1688608;83;21034;-68
2022/05/22 07:54:35;;;;;;;4.47;2.12;;;;;;;13.75;69.89;100541.38;1680005;83;21511;-68
2022/05/22 07:57:01;;;;;;;6.78;2.95;;;;;;;13.91;69.90;100543.33;1679885;85;21073;-68
2022/05/22 07:59:27;;;;;;;8.40;2.40;;;;;;;13.92;69.81;100545.50;1686836;85;21084;-68
2022/05/22 08:01:53;;;;;;;8.73;2.98;;;;;;;13.88;69.80;100552.26;1682621;83;21172;-68
2022/05/22 08:04:19;;;;;;;7.05;1.87;;;;;;;13.89;69.79;100556.61;1679903;83;21699;-68
2022/05/22 08:06:45;;;;;;;9.33;2.58;;;;;;;13.80;69.73;100551.02;1679725;83;20934;-68
2022/05/22 08:09:11;;;;;;;7.78;2.60;;;;;;;13.78;69.74;100546.36;1680927;83;21047;-68
2022/05/22 08:11:37;;;;;;;7.03;2.40;;;;;;;13.81;69.74;100551.34;1690187;83;21170;-68
2022/05/22 08:14:03;;;;;;;8.53;2.33;;;;;;;13.90;69.70;100558.25;1689953;85;21157;-68
2022/05/22 08:16:30;;;;;;;5.85;3.12;;;;;;;13.90;69.68;100547.52;1682688;83;21632;-68
2022/05/22 08:18:56;;;;;;;5.92;2.35;;;;;;;13.96;69.69;100552.16;1681125;83;21066;-68
2022/05/22 08:21:23;;;;;;;8.03;2.22;;;;;;;14.03;69.68;100543.69;1693219;84;20994;-68
2022/05/22 08:23:49;;;;;;;5.90;2.42;;;;;;;14.06;69.66;100537.94;1689179;83;21523;-68
2022/05/22 08:26:15;;;;;;;8.55;2.80;;;;;;;13.99;69.58;100539.20;1692692;84;21633;-68
2022/05/22 08:28:41;;;;;;;7.65;2.15;;;;;;;14.19;69.66;100539.42;1690526;83;21025;-68
2022/05/22 08:31:07;;;;;;;5.30;2.37;;;;;;;14.48;69.62;100539.86;1688090;83;20976;-68
2022/05/22 08:33:34;;;;;;;4.30;2.00;;;;;;;14.83;69.55;100532.23;1693134;83;20869;-69
2022/05/22 08:36:00;;;;;;;10.15;2.37;;;;;;;15.13;69.35;100540.91;1675392;83;21078;-69
2022/05/22 08:38:26;;;;;;;5.60;1.90;;;;;;;15.25;69.13;100529.95;1684110;83;21296;-69
2022/05/22 08:41:09;;;;;;;4.78;1.80;;;;;;;15.23;68.92;100527.16;1706327;82;20998;-69
2022/05/22 08:43:40;;;;;;;4.22;1.57;;;;;;;15.61;68.89;100531.13;1683498;84;21137;-69
2022/05/22 08:46:27;;;;;;;7.62;2.05;;;;;;;15.83;68.46;100523.24;1687996;83;21012;-69
2022/05/22 08:48:57;;;;;;;7.08;1.77;;;;;;;16.22;68.21;100524.43;1692788;83;20952;-69
2022/05/22 08:51:42;;;;;;;9.10;2.10;;;;;;;16.18;67.60;100525.36;1688747;83;21228;-69
2022/05/22 08:54:23;;;;;;;5.80;1.80;;;;;;;15.73;67.19;100527.33;1687268;83;21543;-69
2022/05/22 08:59:37;;;;;;;5.85;2.42;;;;;;;15.31;66.87;100529.66;1681661;84;21066;-69
2022/05/22 09:02:25;;;;;;;5.17;1.70;;;;;;;15.58;66.80;100534.73;1682289;85;20982;-69
2022/05/22 09:05:06;;;;;;;3.75;1.72;;;;;;;15.65;66.50;100527.02;1689267;83;21508;-69
2022/05/22 09:07:52;;;;;;;6.22;2.08;;;;;;;15.62;66.41;100535.45;1678083;84;21114;-69
2022/05/22 09:10:44;;;;;;;5.47;2.12;;;;;;;15.71;66.33;100534.28;1686551;84;21538;-69
2022/05/22 09:13:24;;;;;;;10.53;1.98;;;;;;;15.71;66.11;100533.44;1681748;83;21555;-69
2022/05/22 09:16:17;;;;;;;5.28;1.45;;;;;;;15.90;66.06;100532.71;1658820;83;21038;-69
2022/05/22 09:19:09;;;;;;;4.72;1.95;;;;;;;16.32;66.05;100518.97;1691226;84;21164;-69
2022/05/22 09:21:57;;;;;;;5.22;2.10;;;;;;;16.83;65.81;100523.79;1692419;84;21130;-69
2022/05/22 09:24:46;;;;;;;5.53;1.77;;;;;;;16.55;65.44;100521.77;1690008;83;21610;-69
2022/05/22 09:27:23;;;;;;;5.85;1.72;;;;;;;16.22;65.32;100523.09;1691133;84;21024;-69
2022/05/22 09:30:06;;;;;;;5.80;1.77;;;;;;;16.46;65.38;100528.72;1687856;84;21038;-69
2022/05/22 09:32:50;;;;;;;5.42;1.80;;;;;;;16.83;65.16;100521.09;1670574;84;21136;-69
2022/05/22 09:35:49;;;;;;;4.05;1.70;;;;;;;16.88;64.76;100526.70;1662517;85;21048;-69
2022/05/22 09:38:39;;;;;;;7.37;2.92;;;;;;;17.03;64.55;100522.45;1676930;83;21019;-69
2022/05/22 09:41:31;;;;;;;4.50;2.25;;;;;;;17.08;64.18;100520.78;1682222;84;21034;-69
2022/05/22 09:44:18;;;;;;;8.43;3.10;;;;;;;17.04;63.94;100526.27;1685511;83;21022;-69
2022/05/22 09:46:52;;;;;;;4.45;1.50;;;;;;;16.96;63.60;100526.47;1678542;83;21156;-69
2022/05/22 09:49:45;;;;;;;4.45;1.65;;;;;;;16.82;63.31;100530.20;1681708;83;21118;-69
2022/05/22 09:52:25;;;;;;;3.92;1.40;;;;;;;16.83;62.81;100535.91;1673274;84;21050;-69
2022/05/22 09:55:03;;;;;;;7.47;1.92;;;;;;;16.86;62.38;100534.15;1674631;85;21050;-70
2022/05/22 09:57:58;;;;;;;6.12;1.70;;;;;;;16.97;62.00;100530.83;1679400;84;21042;-70
2022/05/22 10:00:35;;;;;;;5.55;1.27;;;;;;;17.19;61.75;100524.19;1678015;83;21910;-70
2022/05/22 10:03:14;;;;;;;3.55;1.40;;;;;;;17.19;61.37;100526.88;1679671;83;21063;-70
2022/05/22 10:06:09;;;;;;;5.05;1.57;;;;;;;16.89;61.01;100521.61;1679873;85;21026;-70
2022/05/22 10:09:01;;;;;;;4.55;1.50;;;;;;;16.39;60.66;100534.61;1645638;85;21102;-70
2022/05/22 10:11:36;;;;;;;3.12;1.17;;;;;;;15.87;60.61;100543.84;1679054;85;21090;-70
2022/05/22 10:14:13;;;;;;;4.45;1.30;;;;;;;15.60;60.58;100538.03;1678134;85;21958;-70
2022/05/22 10:17:25;;;;;;;6.62;2.47;;;;;;;15.48;60.59;100531.87;1678332;84;21086;-70
2022/05/22 10:20:06;;;;;;;3.15;1.80;;;;;;;15.62;60.64;100529.27;1673958;85;21610;-70
2022/05/22 10:22:50;;;;;;;5.45;1.85;;;;;;;15.80;60.62;100529.54;1720790;83;20995;-70
2022/05/22 10:25:44;;;;;;;7.40;2.83;;;;;;;15.92;60.49;100526.59;1720292;83;21480;-71
2022/05/22 10:28:17;;;;;;;5.47;1.90;;;;;;;16.09;60.46;100531.94;1720864;83;21140;-70
2022/05/22 10:31:04;;;;;;;4.70;1.27;;;;;;;16.28;60.39;100527.64;1720750;83;20998;-70
2022/05/22 10:33:56;;;;;;;3.60;1.55;;;;;;;16.35;60.36;100523.94;1720875;83;21495;-70
2022/05/22 10:36:26;;;;;;;5.17;1.45;;;;;;;16.35;60.27;100529.32;1720878;82;21011;-71
2022/05/22 10:39:07;;;;;;;2.87;1.25;;;;;;;16.48;60.30;100532.03;1720128;83;21046;-70
2022/05/22 10:44:43;;;;;;;6.50;2.25;;;;;;;16.86;60.05;100526.06;1721245;83;21500;-70
2022/05/22 10:47:09;;;;;;;3.58;1.40;;;;;;;17.10;59.84;100538.90;1721424;83;20903;-70
2022/05/22 10:49:41;;;;;;;4.00;1.50;;;;;;;17.27;59.60;100532.06;1721499;83;21045;-71
2022/05/22 10:52:09;;;;;;;7.62;1.32;;;;;;;17.36;59.32;100535.34;1721329;83;20963;-70
2022/05/22 10:54:46;;;;;;;6.25;2.22;;;;;;;17.23;58.99;100536.73;1721286;83;21194;-70
2022/05/22 10:57:18;;;;;;;5.25;1.60;;;;;;;17.08;58.92;100531.55;1721431;83;20943;-70
2022/05/22 10:59:44;;;;;;;4.83;1.30;;;;;;;16.98;58.77;100528.45;1721366;83;20896;-70
2022/05/22 11:02:27;;;;;;;3.90;1.17;;;;;;;16.82;58.58;100530.20;1721467;83;20983;-70
2022/05/22 11:07:57;;;;;;;3.67;1.25;;;;;;;16.94;58.49;100532.09;1927165;74;22593;-70
2022/05/22 11:10:31;;;;;;;4.58;1.40;;;;;;;17.14;58.42;100532.58;1865426;77;20995;-70
2022/05/22 11:13:12;;;;;;;4.40;1.60;;;;;;;17.39;58.30;100527.66;1856639;75;21699;-70
2022/05/22 11:15:42;;;;;;;2.75;1.32;;;;;;;17.42;58.01;100521.84;1863797;75;20927;-70
2022/05/22 11:18:10;;;;;;;;;;;;;;;17.53;58.01;100520.36;1867244;75;21002;-70
2022/05/22 11:20:44;;;;;;;4.15;1.30;;;;;;;17.63;57.83;100519.42;1832389;78;20113;-71
2022/05/22 11:23:28;;;;;;;3.17;1.57;;;;;;;17.64;57.59;100517.56;1839070;75;21384;-70
2022/05/22 11:26:11;;;;;;;5.72;1.72;;;;;;;17.50;57.39;100510.00;1853698;75;21210;-70
2022/05/22 11:29:04;;;;;;;6.33;1.77;;;;;;;17.47;57.40;100516.66;1889062;75;20924;-70
2022/05/22 11:32:04;;;;;;;6.22;2.05;;;;;;;17.77;57.28;100518.86;1863664;75;21499;-70
2022/05/22 11:35:01;;;;;;;2.83;1.50;;;;;;;17.92;57.05;100514.02;1863104;75;21058;-70
2022/05/22 11:37:55;;;;;;;7.40;1.82;;;;;;;18.24;56.93;100508.97;1867482;75;21047;-70
2022/05/22 11:40:45;;;;;;;5.97;1.55;;;;;;;18.64;56.65;100499.28;1851351;75;21165;-70
2022/05/22 11:43:28;;;;;;;4.08;1.70;;;;;;;18.57;56.24;100498.51;1860410;75;20972;-70
2022/05/22 11:46:08;;;;;;;4.58;2.12;;;;;;;18.24;55.91;100502.75;1833582;75;21507;-70
2022/05/22 11:48:54;;;;;;;6.12;1.52;;;;;;;18.26;55.84;100501.47;1864273;75;21448;-68
2022/05/22 11:51:31;;;;;;;6.12;1.42;;;;;;;18.21;55.42;100507.23;1864887;75;20996;-69
2022/05/22 11:54:26;;;;;;;3.85;0.98;;;;;;;18.08;55.16;100497.87;1831611;77;21004;-68
2022/05/22 11:57:17;;;;;;;2.40;1.20;;;;;;;17.85;54.84;100499.73;1832084;78;20939;-69
2022/05/22 12:00:03;;;;;;;4.58;1.40;;;;;;;17.71;54.77;100503.53;1794362;75;21006;-69
2022/05/22 12:03:08;;;;;;;9.38;1.20;;;;;;;17.70;54.72;100504.56;1832701;75;20939;-69
2022/05/22 12:06:02;;;;;;;4.15;1.60;;;;;;;17.86;54.68;100496.00;1767335;81;21673;-69